createdAt,value
2023-02-28T00:01:30.443Z,99.90
2023-02-28T00:04:00.078Z,99.90
2023-02-28T00:06:28.580Z,99.90
2023-02-28T00:08:56.842Z,99.90
2023-02-28T00:11:28.219Z,99.90
2023-02-28T00:13:56.393Z,99.90
2023-02-28T00:16:25.036Z,99.90
2023-02-28T00:18:53.376Z,99.90
2023-02-28T00:21:23.267Z,99.90
2023-02-28T00:23:51.398Z,99.90
2023-02-28T00:26:21.672Z,99.90
2023-02-28T00:28:50.434Z,99.90
2023-02-28T00:31:18.400Z,99.90
2023-02-28T00:33:46.415Z,99.90
2023-02-28T00:36:14.483Z,99.90
2023-02-28T00:38:43.857Z,99.90
2023-02-28T00:41:11.997Z,99.90
2023-02-28T00:43:41.063Z,99.90
2023-02-28T00:46:10.647Z,99.90
2023-02-28T00:48:38.814Z,99.90
2023-02-28T00:51:07.171Z,99.90
2023-02-28T00:53:35.356Z,99.90
2023-02-28T00:56:05.391Z,99.90
2023-02-28T00:58:33.669Z,99.90
2023-02-28T01:01:02.001Z,99.90
2023-02-28T01:03:30.050Z,99.90
2023-02-28T01:05:58.519Z,99.90
2023-02-28T01:08:29.546Z,99.90
2023-02-28T01:10:59.225Z,99.90
2023-02-28T01:13:28.654Z,99.90
2023-02-28T01:15:58.386Z,99.90
2023-02-28T01:18:26.871Z,99.90
2023-02-28T01:20:55.150Z,99.90
2023-02-28T01:23:25.111Z,99.90
2023-02-28T01:25:53.698Z,99.90
2023-02-28T01:28:22.029Z,99.90
2023-02-28T01:30:52.498Z,99.90
2023-02-28T01:33:20.744Z,99.90
2023-02-28T01:35:48.786Z,99.90
2023-02-28T01:38:22.689Z,99.90
2023-02-28T01:40:51.891Z,99.90
2023-02-28T01:43:25.107Z,99.90
2023-02-28T01:45:58.099Z,99.90
2023-02-28T01:48:28.723Z,99.90
2023-02-28T01:51:00.866Z,99.90
2023-02-28T01:53:33.943Z,99.90
2023-02-28T01:56:03.511Z,99.90
2023-02-28T01:58:31.634Z,99.90
2023-02-28T02:01:01.117Z,99.90
2023-02-28T02:03:29.256Z,99.90
2023-02-28T02:05:57.197Z,99.90
2023-02-28T02:08:28.286Z,99.90
2023-02-28T02:10:59.467Z,99.90
2023-02-28T02:13:57.408Z,99.90
2023-02-28T02:16:37.842Z,99.90
2023-02-28T02:19:27.297Z,99.90
2023-02-28T02:22:24.951Z,99.90
2023-02-28T02:25:13.898Z,99.90
2023-02-28T02:27:59.818Z,99.90
2023-02-28T02:30:49.048Z,99.90
2023-02-28T02:33:53.977Z,99.90
2023-02-28T02:36:30.228Z,99.90
2023-02-28T02:39:06.205Z,99.90
2023-02-28T02:41:40.403Z,99.90
2023-02-28T02:44:15.387Z,99.90
2023-02-28T02:46:46.668Z,99.90
2023-02-28T02:49:18.103Z,99.90
2023-02-28T02:51:49.625Z,99.90
2023-02-28T02:54:21.932Z,99.90
2023-02-28T02:56:52.189Z,99.90
2023-02-28T02:59:24.803Z,99.90
2023-02-28T03:01:56.995Z,99.90
2023-02-28T03:04:29.771Z,99.90
2023-02-28T03:06:59.185Z,99.90
2023-02-28T03:09:28.320Z,99.90
2023-02-28T03:11:58.242Z,99.90
2023-02-28T03:14:42.444Z,99.90
2023-02-28T03:17:43.475Z,99.90
2023-02-28T03:20:20.263Z,99.90
2023-02-28T03:22:57.716Z,99.90
2023-02-28T03:25:35.370Z,99.90
2023-02-28T03:28:09.717Z,99.90
2023-02-28T03:30:44.235Z,99.90
2023-02-28T03:33:16.015Z,99.90
2023-02-28T03:35:48.244Z,99.90
2023-02-28T03:38:22.165Z,99.90
2023-02-28T03:40:53.151Z,99.90
2023-02-28T03:43:28.406Z,99.90
2023-02-28T03:45:57.907Z,99.90
2023-02-28T03:48:33.047Z,99.90
2023-02-28T03:51:02.154Z,99.90
2023-02-28T03:53:35.161Z,99.90
2023-02-28T03:56:11.599Z,99.90
2023-02-28T03:58:44.459Z,99.90
2023-02-28T04:01:16.912Z,99.90
2023-02-28T04:03:46.585Z,99.90
2023-02-28T04:06:18.920Z,99.90
2023-02-28T04:08:48.883Z,99.90
2023-02-28T04:11:23.051Z,99.90
2023-02-28T04:13:51.219Z,99.90
2023-02-28T04:16:34.041Z,99.90
2023-02-28T04:19:04.506Z,99.90
2023-02-28T04:21:34.284Z,99.90
2023-02-28T04:24:05.104Z,99.90
2023-02-28T04:26:33.826Z,99.90
2023-02-28T04:29:03.045Z,99.90
2023-02-28T04:31:31.509Z,99.90
2023-02-28T04:33:59.833Z,99.90
2023-02-28T04:36:28.320Z,99.90
2023-02-28T04:38:56.510Z,99.90
2023-02-28T04:41:31.710Z,99.90
2023-02-28T04:44:00.343Z,99.90
2023-02-28T04:46:28.417Z,99.90
2023-02-28T04:48:56.483Z,99.90
2023-02-28T04:51:25.114Z,99.90
2023-02-28T04:53:53.106Z,99.90
2023-02-28T04:56:21.738Z,99.90
2023-02-28T04:58:53.993Z,99.90
2023-02-28T05:01:25.091Z,99.90
2023-02-28T05:03:54.783Z,99.90
2023-02-28T05:06:24.638Z,99.90
2023-02-28T05:08:53.398Z,99.90
2023-02-28T05:11:23.256Z,99.90
2023-02-28T05:13:53.240Z,99.90
2023-02-28T05:16:22.108Z,99.90
2023-02-28T05:18:50.186Z,99.90
2023-02-28T05:21:30.062Z,99.90
2023-02-28T05:23:59.717Z,99.90
2023-02-28T05:26:28.889Z,99.90
2023-02-28T05:28:58.736Z,99.90
2023-02-28T05:31:26.979Z,99.90
2023-02-28T05:33:55.245Z,99.90
2023-02-28T05:36:23.838Z,99.90
2023-02-28T05:38:52.856Z,99.90
2023-02-28T05:41:22.531Z,99.90
2023-02-28T05:43:51.015Z,99.90
2023-02-28T05:46:20.402Z,99.90
2023-02-28T05:48:50.024Z,99.90
2023-02-28T05:51:18.891Z,99.90
2023-02-28T05:53:46.942Z,99.90
2023-02-28T05:56:15.046Z,99.90
2023-02-28T05:58:43.091Z,99.90
2023-02-28T06:01:33.186Z,99.90
2023-02-28T06:04:02.074Z,99.90
2023-02-28T06:06:30.469Z,99.90
2023-02-28T06:08:59.111Z,99.90
2023-02-28T06:11:29.122Z,99.90
2023-02-28T06:14:00.526Z,99.90
2023-02-28T06:16:30.558Z,99.90
2023-02-28T06:19:00.284Z,99.90
2023-02-28T06:21:29.640Z,99.90
2023-02-28T06:23:58.702Z,99.90
2023-02-28T06:26:27.783Z,99.90
2023-02-28T06:28:56.581Z,99.90
2023-02-28T06:31:27.992Z,99.90
2023-02-28T06:33:57.910Z,99.90
2023-02-28T06:36:25.969Z,99.90
2023-02-28T06:38:56.408Z,99.90
2023-02-28T06:41:25.953Z,99.90
2023-02-28T06:43:54.655Z,99.90
2023-02-28T06:46:22.993Z,99.90
2023-02-28T06:48:51.152Z,99.90
2023-02-28T06:51:23.257Z,99.90
2023-02-28T06:53:51.683Z,99.90
2023-02-28T06:56:21.109Z,99.90
2023-02-28T06:58:49.818Z,99.90
2023-02-28T07:01:20.165Z,99.90
2023-02-28T07:03:53.018Z,99.90
2023-02-28T07:06:23.508Z,99.90
2023-02-28T07:08:52.921Z,99.90
2023-02-28T07:11:22.290Z,99.90
2023-02-28T07:13:50.373Z,99.90
2023-02-28T07:16:18.392Z,99.90
2023-02-28T07:18:46.528Z,99.90
2023-02-28T07:21:14.688Z,99.90
2023-02-28T07:23:44.469Z,99.90
2023-02-28T07:26:15.715Z,99.90
2023-02-28T07:28:47.051Z,99.90
2023-02-28T07:31:16.361Z,99.90
2023-02-28T07:33:44.677Z,99.90
2023-02-28T07:36:16.143Z,99.90
2023-02-28T07:38:48.565Z,99.90
2023-02-28T07:41:17.460Z,99.90
2023-02-28T07:43:47.635Z,99.90
2023-02-28T07:46:17.638Z,99.90
2023-02-28T07:48:46.657Z,99.90
2023-02-28T07:51:14.668Z,99.90
2023-02-28T07:53:42.678Z,99.90
2023-02-28T07:56:12.779Z,99.90
2023-02-28T07:58:40.761Z,99.90
2023-02-28T08:01:09.445Z,99.90
2023-02-28T08:03:38.325Z,99.90
2023-02-28T08:06:16.868Z,99.90
2023-02-28T08:08:45.413Z,99.90
2023-02-28T08:11:14.951Z,99.90
2023-02-28T08:13:44.799Z,99.90
2023-02-28T08:16:15.388Z,99.90
2023-02-28T08:18:43.779Z,99.90
2023-02-28T08:21:12.856Z,99.90
2023-02-28T08:23:41.011Z,99.90
2023-02-28T08:26:09.192Z,99.90
2023-02-28T08:28:38.544Z,99.90
2023-02-28T08:31:10.975Z,99.90
2023-02-28T08:33:39.976Z,99.90
2023-02-28T08:36:09.491Z,99.90
2023-02-28T08:38:40.221Z,99.90
2023-02-28T08:41:10.065Z,99.90
2023-02-28T08:43:40.323Z,99.90
2023-02-28T08:46:09.052Z,99.90
2023-02-28T08:48:38.756Z,99.90
2023-02-28T08:51:10.133Z,99.90
2023-02-28T08:53:38.248Z,99.90
2023-02-28T08:56:09.086Z,99.90
2023-02-28T08:58:39.069Z,99.90
2023-02-28T09:01:11.876Z,99.90
2023-02-28T09:03:40.366Z,99.90
2023-02-28T09:06:08.630Z,99.90
2023-02-28T09:08:36.920Z,99.90
2023-02-28T09:11:06.005Z,99.90
2023-02-28T09:13:35.207Z,99.90
2023-02-28T09:16:06.528Z,99.90
2023-02-28T09:18:36.932Z,99.90
2023-02-28T09:21:09.307Z,99.90
2023-02-28T09:23:39.003Z,99.90
2023-02-28T09:26:07.895Z,98.90
2023-02-28T09:28:36.031Z,99.00
2023-02-28T09:31:05.908Z,99.90
2023-02-28T09:33:35.238Z,1.00
2023-02-28T09:36:04.845Z,99.90
2023-02-28T09:38:32.835Z,1.00
2023-02-28T09:41:07.867Z,1.00
2023-02-28T09:43:40.446Z,99.90
2023-02-28T09:46:20.199Z,99.90
2023-02-28T09:48:50.293Z,99.90
2023-02-28T09:51:35.279Z,99.90
2023-02-28T09:54:03.925Z,99.90
2023-02-28T09:56:37.635Z,99.90
2023-02-28T09:59:16.169Z,99.90
2023-02-28T10:01:55.024Z,99.90
2023-02-28T10:04:38.827Z,85.30
2023-02-28T10:07:18.803Z,1.00
2023-02-28T10:09:48.978Z,1.00
2023-02-28T10:12:18.437Z,1.00
2023-02-28T10:14:49.321Z,1.00
2023-02-28T10:17:23.024Z,1.00
2023-02-28T10:20:00.819Z,1.00
2023-02-28T10:22:36.215Z,1.00
2023-02-28T10:25:19.067Z,1.00
2023-02-28T10:27:51.249Z,1.00
2023-02-28T10:30:19.516Z,99.90
2023-02-28T10:32:54.534Z,99.90
2023-02-28T10:35:24.072Z,99.90
2023-02-28T10:37:55.709Z,99.90
2023-02-28T10:40:34.442Z,99.90
2023-02-28T10:43:04.762Z,99.90
2023-02-28T10:45:35.238Z,99.90
2023-02-28T10:48:07.708Z,99.90
2023-02-28T10:50:44.251Z,99.90
2023-02-28T10:53:30.200Z,99.90
2023-02-28T10:56:00.489Z,99.90
2023-02-28T10:58:32.248Z,1.00
2023-02-28T11:01:01.808Z,1.00
2023-02-28T11:03:36.650Z,1.00
2023-02-28T11:06:14.049Z,1.00
2023-02-28T11:08:52.023Z,36.80
2023-02-28T11:11:22.149Z,30.80
2023-02-28T11:13:53.596Z,70.00
2023-02-28T11:16:22.356Z,99.90
2023-02-28T11:18:54.047Z,99.90
2023-02-28T11:21:27.040Z,99.90
2023-02-28T11:24:00.481Z,99.90
2023-02-28T11:26:40.122Z,99.90
2023-02-28T11:29:21.149Z,99.90
2023-02-28T11:32:12.110Z,99.90
2023-02-28T11:34:43.086Z,1.00
2023-02-28T11:37:15.129Z,1.00
2023-02-28T11:39:44.785Z,99.90
2023-02-28T11:42:40.213Z,99.90
2023-02-28T11:45:23.924Z,99.90
2023-02-28T11:48:03.765Z,1.00
2023-02-28T11:50:56.660Z,99.90
2023-02-28T11:53:41.499Z,1.00
2023-02-28T11:56:15.507Z,99.90
2023-02-28T11:58:53.583Z,99.90
2023-02-28T12:01:35.601Z,99.90
2023-02-28T12:04:19.304Z,99.90
2023-02-28T12:06:55.034Z,99.90
2023-02-28T12:09:38.015Z,1.00
2023-02-28T12:12:16.695Z,8.40
2023-02-28T12:15:01.292Z,99.90
2023-02-28T12:17:49.063Z,65.60
2023-02-28T12:20:28.219Z,95.60
2023-02-28T12:23:10.310Z,95.70
2023-02-28T12:25:52.006Z,1.00
2023-02-28T12:28:25.760Z,1.00
2023-02-28T12:31:00.367Z,99.90
2023-02-28T12:33:34.714Z,99.90
2023-02-28T12:36:10.973Z,1.00
2023-02-28T12:38:43.530Z,55.90
2023-02-28T12:41:16.901Z,99.90
2023-02-28T12:43:49.608Z,1.00
2023-02-28T12:46:22.635Z,99.90
2023-02-28T12:48:56.533Z,1.00
2023-02-28T12:51:26.155Z,1.00
2023-02-28T12:54:04.622Z,1.00
2023-02-28T12:56:38.439Z,1.00
2023-02-28T12:59:19.503Z,99.90
2023-02-28T13:02:04.166Z,1.00
2023-02-28T13:04:47.812Z,26.30
2023-02-28T13:07:51.448Z,1.00
2023-02-28T13:10:21.251Z,1.00
2023-02-28T13:12:53.934Z,1.00
2023-02-28T13:15:26.058Z,99.90
2023-02-28T13:17:57.195Z,1.00
2023-02-28T13:20:27.951Z,1.00
2023-02-28T13:22:58.068Z,99.90
2023-02-28T13:25:58.684Z,99.90
2023-02-28T13:29:03.234Z,99.90
2023-02-28T13:31:33.982Z,99.90
2023-02-28T13:34:14.465Z,99.90
2023-02-28T13:36:43.049Z,99.90
2023-02-28T13:39:51.191Z,79.60
2023-02-28T13:42:38.176Z,13.00
2023-02-28T13:45:30.963Z,99.90
2023-02-28T13:48:02.833Z,99.90
2023-02-28T13:50:38.634Z,99.90
2023-02-28T13:53:36.505Z,99.90
2023-02-28T13:56:12.223Z,99.90
2023-02-28T13:58:56.466Z,99.90
2023-02-28T14:01:44.006Z,1.00
2023-02-28T14:04:47.110Z,99.90
2023-02-28T14:07:21.642Z,1.00
2023-02-28T14:09:57.511Z,1.00
2023-02-28T14:12:56.664Z,1.00
2023-02-28T14:15:59.832Z,1.00
2023-02-28T14:18:34.118Z,1.00
2023-02-28T14:21:26.748Z,1.00
2023-02-28T14:24:22.773Z,34.50
2023-02-28T14:27:13.752Z,1.00
2023-02-28T14:30:22.340Z,89.00
2023-02-28T14:33:00.667Z,84.00
2023-02-28T14:35:53.143Z,52.70
2023-02-28T14:38:28.866Z,1.00
2023-02-28T14:40:59.379Z,1.00
2023-02-28T14:43:30.180Z,1.00
2023-02-28T14:46:01.575Z,1.00
2023-02-28T14:48:31.146Z,38.90
2023-02-28T14:51:01.497Z,1.00
2023-02-28T14:53:32.229Z,1.00
2023-02-28T14:56:01.471Z,1.00
2023-02-28T14:58:32.449Z,1.00
2023-02-28T15:01:02.404Z,1.00
2023-02-28T15:03:35.782Z,1.00
2023-02-28T15:06:05.771Z,1.00
2023-02-28T15:08:37.020Z,1.00
2023-02-28T15:11:09.858Z,1.00
2023-02-28T15:13:41.506Z,1.00
2023-02-28T15:16:13.827Z,7.00
2023-02-28T15:18:49.265Z,1.00
2023-02-28T15:21:19.418Z,1.00
2023-02-28T15:23:51.315Z,5.70
2023-02-28T15:26:22.976Z,1.00
2023-02-28T15:29:01.977Z,1.00
2023-02-28T15:31:39.078Z,67.90
2023-02-28T15:34:23.244Z,99.90
2023-02-28T15:36:53.084Z,99.90
2023-02-28T15:39:28.954Z,99.90
2023-02-28T15:42:12.627Z,99.90
2023-02-28T15:44:40.723Z,99.90
2023-02-28T15:47:16.678Z,99.90
2023-02-28T15:49:51.872Z,99.90
2023-02-28T15:52:23.357Z,99.90
2023-02-28T15:54:51.889Z,99.90
2023-02-28T15:57:23.395Z,99.90
2023-02-28T15:59:55.449Z,99.90
2023-02-28T16:02:32.720Z,99.90
2023-02-28T16:05:28.683Z,99.90
2023-02-28T16:07:57.545Z,99.90
2023-02-28T16:10:27.360Z,99.90
2023-02-28T16:12:56.874Z,99.90
2023-02-28T16:15:27.907Z,99.90
2023-02-28T16:17:56.922Z,99.90
2023-02-28T16:20:30.096Z,99.90
2023-02-28T16:23:02.114Z,99.90
2023-02-28T16:25:36.197Z,99.90
2023-02-28T16:28:04.569Z,99.90
2023-02-28T16:30:33.421Z,99.90
2023-02-28T16:33:01.784Z,1.00
2023-02-28T16:35:31.361Z,1.00
2023-02-28T16:38:02.308Z,1.00
2023-02-28T16:40:35.085Z,1.00
2023-02-28T16:43:08.567Z,1.00
2023-02-28T16:45:36.818Z,1.00
2023-02-28T16:48:04.914Z,1.00
2023-02-28T16:50:34.662Z,1.00
2023-02-28T16:53:02.696Z,1.00
2023-02-28T16:55:30.666Z,1.00
2023-02-28T16:58:00.806Z,1.00
2023-02-28T17:00:30.952Z,1.00
2023-02-28T17:03:00.093Z,1.00
2023-02-28T17:05:30.189Z,1.00
2023-02-28T17:07:59.516Z,1.00
2023-02-28T17:10:28.624Z,1.00
2023-02-28T17:13:06.184Z,1.00
2023-02-28T17:15:41.983Z,1.00
2023-02-28T17:18:15.646Z,1.00
2023-02-28T17:20:43.918Z,1.00
2023-02-28T17:23:13.781Z,1.00
2023-02-28T17:25:41.786Z,1.00
2023-02-28T17:28:11.271Z,1.00
2023-02-28T17:30:39.400Z,1.00
2023-02-28T17:33:07.342Z,1.00
2023-02-28T17:35:35.676Z,1.00
2023-02-28T17:38:03.904Z,1.00
2023-02-28T17:40:34.815Z,1.00
2023-02-28T17:43:03.062Z,1.00
2023-02-28T17:45:31.048Z,1.00
2023-02-28T17:47:59.070Z,1.00
2023-02-28T17:50:27.025Z,1.00
2023-02-28T17:52:55.001Z,1.00
2023-02-28T17:55:22.964Z,1.00
2023-02-28T17:57:52.308Z,1.00
2023-02-28T18:00:24.813Z,1.00
2023-02-28T18:02:53.055Z,1.00
2023-02-28T18:05:21.112Z,1.00
2023-02-28T18:07:49.123Z,1.00
2023-02-28T18:10:20.368Z,1.00
2023-02-28T18:12:49.321Z,1.00
2023-02-28T18:15:20.952Z,1.00
2023-02-28T18:17:49.782Z,1.00
2023-02-28T18:20:17.973Z,1.00
2023-02-28T18:22:46.045Z,1.00
2023-02-28T18:25:16.922Z,1.00
2023-02-28T18:27:53.992Z,1.00
2023-02-28T18:30:24.838Z,1.00
2023-02-28T18:32:52.841Z,1.00
2023-02-28T18:35:34.785Z,1.00
2023-02-28T18:38:05.621Z,1.00
2023-02-28T18:40:34.051Z,1.00
2023-02-28T18:43:02.373Z,1.00
2023-02-28T18:45:32.197Z,1.00
2023-02-28T18:48:00.187Z,1.00
2023-02-28T18:50:29.580Z,1.00
2023-02-28T18:52:59.162Z,1.00
2023-02-28T18:55:27.927Z,3.00
2023-02-28T18:57:55.989Z,4.20
2023-02-28T19:00:26.011Z,4.20
2023-02-28T19:02:55.387Z,4.50
2023-02-28T19:05:23.443Z,5.70
2023-02-28T19:07:51.743Z,7.40
2023-02-28T19:10:20.275Z,7.00
2023-02-28T19:12:51.054Z,7.90
2023-02-28T19:15:19.558Z,9.00
2023-02-28T19:17:54.042Z,9.10
2023-02-28T19:20:23.669Z,9.90
2023-02-28T19:22:52.155Z,11.40
2023-02-28T19:25:20.162Z,10.60
2023-02-28T19:27:48.384Z,10.80
2023-02-28T19:30:16.640Z,10.10
2023-02-28T19:32:44.909Z,8.20
2023-02-28T19:35:13.159Z,9.70
2023-02-28T19:37:43.322Z,10.30
2023-02-28T19:40:13.685Z,9.70
2023-02-28T19:42:41.703Z,7.70
2023-02-28T19:45:14.631Z,6.60
2023-02-28T19:47:42.740Z,9.50
2023-02-28T19:50:12.254Z,10.30
2023-02-28T19:55:14.913Z,11.90
2023-02-28T19:57:44.868Z,14.60
2023-02-28T20:00:15.505Z,14.80
2023-02-28T20:02:45.898Z,16.20
2023-02-28T20:05:13.893Z,17.50
2023-02-28T20:07:41.872Z,16.70
2023-02-28T20:10:11.239Z,17.90
2023-02-28T20:12:40.620Z,20.40
2023-02-28T20:15:15.010Z,21.90
2023-02-28T20:17:43.062Z,25.30
2023-02-28T20:20:12.311Z,26.50
2023-02-28T20:22:40.355Z,28.00
2023-02-28T20:25:11.431Z,29.50
2023-02-28T20:27:40.804Z,30.80
2023-02-28T20:30:11.783Z,32.10
2023-02-28T20:32:39.859Z,36.90
2023-02-28T20:35:11.569Z,36.60
2023-02-28T20:37:40.127Z,37.50
2023-02-28T20:40:10.051Z,37.90
2023-02-28T20:42:38.294Z,39.80
2023-02-28T20:45:10.116Z,37.10
2023-02-28T20:47:39.110Z,34.30
2023-02-28T20:50:08.415Z,35.60
2023-02-28T20:52:36.423Z,35.20
2023-02-28T20:55:07.575Z,36.50
2023-02-28T20:57:35.642Z,38.40
2023-02-28T21:00:04.114Z,37.60
2023-02-28T21:02:33.597Z,38.00
2023-02-28T21:05:01.575Z,38.80
2023-02-28T21:07:29.763Z,39.60
2023-02-28T21:09:57.989Z,40.80
2023-02-28T21:12:26.730Z,42.10
2023-02-28T21:14:54.706Z,45.10
2023-02-28T21:17:25.012Z,45.10
2023-02-28T21:19:54.366Z,45.10
2023-02-28T21:22:22.652Z,44.70
2023-02-28T21:24:50.627Z,45.40
2023-02-28T21:27:18.601Z,45.30
2023-02-28T21:29:46.673Z,44.40
2023-02-28T21:32:18.253Z,45.40
2023-02-28T21:34:49.148Z,45.40
2023-02-28T21:37:18.608Z,47.60
2023-02-28T21:39:46.704Z,47.80
2023-02-28T21:42:14.695Z,49.40
2023-02-28T21:44:42.748Z,49.20
2023-02-28T21:47:10.740Z,50.60
2023-02-28T21:49:39.153Z,52.30
2023-02-28T21:52:09.202Z,52.20
2023-02-28T21:54:38.721Z,51.60
2023-02-28T21:57:06.791Z,52.10
2023-02-28T21:59:35.227Z,51.00
2023-02-28T22:02:05.415Z,47.50
2023-02-28T22:04:33.505Z,47.20
2023-02-28T22:07:01.512Z,51.30
2023-02-28T22:09:30.018Z,55.90
2023-02-28T22:11:59.427Z,60.90
2023-02-28T22:14:27.886Z,66.00
2023-02-28T22:16:56.947Z,70.30
2023-02-28T22:19:28.204Z,73.60
2023-02-28T22:21:56.994Z,74.80
2023-02-28T22:24:27.258Z,77.40
2023-02-28T22:26:55.581Z,78.10
2023-02-28T22:29:25.037Z,78.90
2023-02-28T22:31:53.109Z,79.20
2023-02-28T22:34:21.348Z,79.90
2023-02-28T22:36:49.345Z,80.90
2023-02-28T22:39:17.535Z,80.10
2023-02-28T22:41:45.538Z,80.80
2023-02-28T22:44:13.605Z,78.50
2023-02-28T22:46:42.998Z,78.00
2023-02-28T22:49:10.987Z,78.20
2023-02-28T22:51:39.044Z,79.50
2023-02-28T22:54:07.184Z,83.20
2023-02-28T22:56:35.311Z,84.40
2023-02-28T22:59:03.823Z,85.20
2023-02-28T23:01:34.333Z,85.10
2023-02-28T23:04:04.173Z,87.40
2023-02-28T23:06:34.380Z,88.10
2023-02-28T23:09:04.898Z,86.90
2023-02-28T23:11:37.001Z,85.70
2023-02-28T23:14:07.663Z,84.60
2023-02-28T23:16:38.623Z,83.80
2023-02-28T23:19:09.654Z,82.20
2023-02-28T23:21:39.074Z,81.90
2023-02-28T23:24:11.796Z,81.10
2023-02-28T23:26:41.693Z,81.30
2023-02-28T23:29:09.763Z,80.90
2023-02-28T23:31:38.028Z,80.80
2023-02-28T23:34:07.689Z,81.00
2023-02-28T23:36:35.717Z,80.60
2023-02-28T23:39:03.882Z,79.70
2023-02-28T23:41:31.854Z,80.40
2023-02-28T23:43:59.903Z,79.00
2023-02-28T23:46:28.570Z,79.10
2023-02-28T23:48:56.845Z,79.10
2023-02-28T23:51:26.184Z,80.00
2023-02-28T23:53:54.392Z,81.00
2023-02-28T23:56:24.264Z,82.10
2023-02-28T23:58:52.556Z,83.30
